Time;durP1;ratioP1;P1;durP2;ratioP2;P2;SDS_P1;SDS_P2;PMS_P1;PMS_P2;Temp;Humidity;BMP_temperature;BMP_pressure;BME280_temperature;BME280_humidity;BME280_pressure;Samples;Min_cycle;Max_cycle;Signal;HPM_P1;HPM_P2
2021/09/07 00:00:31;;;;;;;;;14.75;10.25;;;;;;;;4988695;28;45537;-71
2021/09/07 00:02:56;;;;;;;;;14.50;14.50;;;;;;;;4990917;28;45473;-72
2021/09/07 00:05:22;;;;;;;;;13.25;13.25;;;;;;;;4993099;28;45218;-72
2021/09/07 00:07:47;;;;;;;;;11.00;11.00;;;;;;;;4992953;28;45508;-72
2021/09/07 00:10:13;;;;;;;;;15.00;13.00;;;;;;;;4975308;28;45594;-72
2021/09/07 00:12:38;;;;;;;;;9.25;9.25;;;;;;;;4993128;28;45584;-72
2021/09/07 00:15:04;;;;;;;;;11.25;11.25;;;;;;;;4993326;28;45350;-72
2021/09/07 00:17:29;;;;;;;;;11.00;11.00;;;;;;;;4995043;28;46176;-72
2021/09/07 00:19:55;;;;;;;;;12.25;11.75;;;;;;;;4975006;28;45986;-72
2021/09/07 00:22:20;;;;;;;;;11.75;11.75;;;;;;;;4992756;28;45362;-72
2021/09/07 00:24:45;;;;;;;;;13.50;12.25;;;;;;;;4993002;28;45367;-73
2021/09/07 00:27:10;;;;;;;;;13.50;13.00;;;;;;;;4992839;28;45507;-73
2021/09/07 00:29:35;;;;;;;;;11.00;10.50;;;;;;;;4995127;28;45492;-73
2021/09/07 00:32:01;;;;;;;;;12.25;11.50;;;;;;;;4992902;28;45426;-71
2021/09/07 00:34:26;;;;;;;;;10.50;10.50;;;;;;;;4992787;28;45390;-73
2021/09/07 00:36:51;;;;;;;;;16.75;14.50;;;;;;;;4992644;28;45905;-73
2021/09/07 00:39:16;;;;;;;;;12.25;10.75;;;;;;;;4991544;28;45497;-72
2021/09/07 00:41:42;;;;;;;;;21.00;12.50;;;;;;;;4994258;28;45610;-72
2021/09/07 00:44:12;;;;;;;;;11.75;10.00;;;;;;;;4991835;28;45558;-73
2021/09/07 00:46:37;;;;;;;;;13.25;12.50;;;;;;;;4992345;28;46296;-73
2021/09/07 00:49:02;;;;;;;;;18.25;13.25;;;;;;;;4992541;28;45466;-73
2021/09/07 00:51:28;;;;;;;;;17.00;13.25;;;;;;;;4992755;28;45713;-74
2021/09/07 00:53:53;;;;;;;;;16.25;14.25;;;;;;;;4992857;28;45305;-73
2021/09/07 00:56:19;;;;;;;;;12.50;12.50;;;;;;;;4994039;28;45418;-73
2021/09/07 00:58:45;;;;;;;;;15.75;14.25;;;;;;;;4992405;28;45292;-73
2021/09/07 01:01:10;;;;;;;;;12.75;11.75;;;;;;;;4992643;28;45269;-74
2021/09/07 01:03:35;;;;;;;;;13.25;11.75;;;;;;;;4992555;28;45433;-73
2021/09/07 01:06:01;;;;;;;;;15.25;14.50;;;;;;;;4993691;28;46161;-73
2021/09/07 01:08:26;;;;;;;;;13.75;10.50;;;;;;;;4994841;28;45474;-73
2021/09/07 01:10:51;;;;;;;;;15.50;10.75;;;;;;;;4992330;28;45515;-73
2021/09/07 01:13:16;;;;;;;;;12.25;12.25;;;;;;;;4992617;28;45502;-73
2021/09/07 01:15:41;;;;;;;;;12.75;11.75;;;;;;;;4992052;28;46117;-73
2021/09/07 01:18:07;;;;;;;;;14.75;13.75;;;;;;;;4991872;28;45290;-73
2021/09/07 01:20:32;;;;;;;;;11.50;11.50;;;;;;;;4994031;28;45291;-73
2021/09/07 01:22:57;;;;;;;;;15.50;14.75;;;;;;;;4990898;28;45519;-73
2021/09/07 01:25:22;;;;;;;;;16.00;12.75;;;;;;;;4992008;28;45425;-73
2021/09/07 01:27:48;;;;;;;;;13.00;13.00;;;;;;;;4992257;28;45290;-74
2021/09/07 01:30:14;;;;;;;;;13.00;11.75;;;;;;;;4992899;28;45462;-73
2021/09/07 01:32:40;;;;;;;;;15.75;14.75;;;;;;;;4995133;28;45431;-73
2021/09/07 01:35:05;;;;;;;;;13.50;11.75;;;;;;;;4991809;28;46257;-73
2021/09/07 01:37:30;;;;;;;;;13.75;13.75;;;;;;;;4992109;28;45299;-73
2021/09/07 01:39:55;;;;;;;;;13.00;13.00;;;;;;;;4991807;28;45530;-74
2021/09/07 01:42:24;;;;;;;;;18.25;18.00;;;;;;;;4974817;28;45588;-73
2021/09/07 01:44:49;;;;;;;;;13.25;13.25;;;;;;;;4993237;28;45288;-74
2021/09/07 01:47:14;;;;;;;;;11.50;9.75;;;;;;;;4993006;28;45795;-72
2021/09/07 01:49:40;;;;;;;;;14.50;14.25;;;;;;;;4991847;28;45397;-72
2021/09/07 01:52:12;;;;;;;;;19.75;17.75;;;;;;;;4991894;28;45513;-72
2021/09/07 01:54:45;;;;;;;;;15.00;14.75;;;;;;;;4991681;28;45334;-72
2021/09/07 01:57:12;;;;;;;;;15.75;14.50;;;;;;;;4975438;28;45312;-72
2021/09/07 01:59:37;;;;;;;;;17.25;16.00;;;;;;;;4989814;28;45311;-72
2021/09/07 02:02:02;;;;;;;;;23.25;19.25;;;;;;;;4990361;28;45339;-72
2021/09/07 02:04:28;;;;;;;;;15.75;15.75;;;;;;;;4993179;28;46217;-72
2021/09/07 02:06:53;;;;;;;;;18.00;16.25;;;;;;;;4994505;28;45540;-70
2021/09/07 02:09:19;;;;;;;;;18.75;17.50;;;;;;;;4995080;28;45257;-72
2021/09/07 02:11:44;;;;;;;;;20.75;17.00;;;;;;;;4997172;28;45382;-72
2021/09/07 02:14:10;;;;;;;;;18.50;17.25;;;;;;;;4992382;28;45444;-72
2021/09/07 02:16:35;;;;;;;;;19.00;17.00;;;;;;;;4991432;28;45575;-72
2021/09/07 02:19:00;;;;;;;;;20.50;16.50;;;;;;;;4991424;28;45437;-72
2021/09/07 02:21:25;;;;;;;;;23.00;19.00;;;;;;;;4991910;28;45348;-72
2021/09/07 02:23:50;;;;;;;;;25.25;23.25;;;;;;;;4991850;28;46198;-72
2021/09/07 02:26:16;;;;;;;;;23.00;19.25;;;;;;;;4991773;28;45556;-72
2021/09/07 02:28:41;;;;;;;;;19.50;17.25;;;;;;;;4991326;28;45445;-72
2021/09/07 02:31:07;;;;;;;;;22.50;20.25;;;;;;;;4973758;28;45494;-72
2021/09/07 02:33:32;;;;;;;;;20.50;20.50;;;;;;;;4990993;28;46223;-73
2021/09/07 02:35:57;;;;;;;;;20.50;19.00;;;;;;;;4991517;28;45469;-72
2021/09/07 02:38:23;;;;;;;;;30.00;24.25;;;;;;;;4991450;28;45490;-72
2021/09/07 02:40:48;;;;;;;;;25.25;22.50;;;;;;;;4972263;28;45397;-72
2021/09/07 02:43:13;;;;;;;;;21.50;19.50;;;;;;;;4991093;28;46072;-72
2021/09/07 02:45:38;;;;;;;;;25.50;22.00;;;;;;;;4991162;28;45499;-72
2021/09/07 02:48:04;;;;;;;;;20.25;17.50;;;;;;;;4973411;28;45478;-72
2021/09/07 02:50:29;;;;;;;;;24.00;19.50;;;;;;;;4993048;28;45451;-72
2021/09/07 02:52:54;;;;;;;;;22.25;20.25;;;;;;;;4990079;28;45973;-72
2021/09/07 02:55:20;;;;;;;;;18.00;18.00;;;;;;;;4990703;28;45462;-72
2021/09/07 02:57:45;;;;;;;;;27.25;20.25;;;;;;;;4991017;28;45435;-72
2021/09/07 03:00:11;;;;;;;;;14.50;13.50;;;;;;;;4990855;28;45356;-72
2021/09/07 03:02:36;;;;;;;;;14.25;13.00;;;;;;;;4993130;28;47111;-72
2021/09/07 03:05:01;;;;;;;;;19.25;17.00;;;;;;;;4990599;28;45505;-73
2021/09/07 03:07:27;;;;;;;;;17.00;16.00;;;;;;;;4990817;28;45542;-72
2021/09/07 03:09:52;;;;;;;;;19.50;16.50;;;;;;;;4990903;28;45253;-72
2021/09/07 03:12:17;;;;;;;;;17.50;14.50;;;;;;;;4990629;28;45986;-72
2021/09/07 03:14:42;;;;;;;;;15.00;14.00;;;;;;;;4991997;28;45220;-72
2021/09/07 03:17:08;;;;;;;;;18.00;18.00;;;;;;;;4989767;28;45363;-72
2021/09/07 03:19:33;;;;;;;;;18.25;17.50;;;;;;;;4988993;28;45436;-72
2021/09/07 03:21:58;;;;;;;;;17.00;15.75;;;;;;;;4989934;28;46103;-72
2021/09/07 03:24:23;;;;;;;;;16.25;15.25;;;;;;;;4990540;28;45279;-72
2021/09/07 03:26:48;;;;;;;;;16.50;15.50;;;;;;;;4991445;28;45380;-74
2021/09/07 03:29:14;;;;;;;;;15.25;13.50;;;;;;;;4992063;28;45435;-73
2021/09/07 03:31:39;;;;;;;;;18.00;16.75;;;;;;;;4990399;28;45385;-74
2021/09/07 03:34:04;;;;;;;;;16.50;15.00;;;;;;;;4990228;28;45650;-72
2021/09/07 03:36:29;;;;;;;;;18.75;16.50;;;;;;;;4989822;28;45468;-72
2021/09/07 03:38:55;;;;;;;;;22.50;20.50;;;;;;;;4990243;28;45474;-74
2021/09/07 03:41:20;;;;;;;;;17.75;17.25;;;;;;;;4991887;28;47269;-73
2021/09/07 03:43:46;;;;;;;;;16.00;15.50;;;;;;;;4989870;28;45531;-73
2021/09/07 03:46:11;;;;;;;;;19.00;17.50;;;;;;;;4990091;28;45439;-73
2021/09/07 03:48:36;;;;;;;;;14.75;14.75;;;;;;;;4989961;28;45385;-73
2021/09/07 03:51:01;;;;;;;;;15.75;15.50;;;;;;;;4989907;28;46202;-73
2021/09/07 03:53:29;;;;;;;;;17.75;15.50;;;;;;;;4992078;28;45315;-73
2021/09/07 03:55:54;;;;;;;;;20.00;17.50;;;;;;;;4988337;28;45500;-73
2021/09/07 03:58:19;;;;;;;;;18.50;16.75;;;;;;;;4988416;28;45904;-73
2021/09/07 04:00:44;;;;;;;;;15.00;15.00;;;;;;;;4989650;28;47130;-73
2021/09/07 04:03:13;;;;;;;;;22.50;21.50;;;;;;;;4990212;28;45357;-73
2021/09/07 04:05:39;;;;;;;;;19.25;18.25;;;;;;;;4987875;28;45347;-74
2021/09/07 04:08:04;;;;;;;;;22.50;20.75;;;;;;;;4989793;28;45342;-72
2021/09/07 04:10:29;;;;;;;;;20.00;16.75;;;;;;;;4989374;28;47060;-72
2021/09/07 04:12:54;;;;;;;;;15.75;15.75;;;;;;;;4989348;28;45341;-71
2021/09/07 04:15:20;;;;;;;;;13.75;13.00;;;;;;;;4989447;28;45568;-75
2021/09/07 04:17:45;;;;;;;;;17.75;17.75;;;;;;;;4973431;28;45445;-73
2021/09/07 04:20:11;;;;;;;;;19.00;17.00;;;;;;;;4989827;28;46250;-73
2021/09/07 04:22:36;;;;;;;;;20.25;16.00;;;;;;;;4989636;28;45630;-72
2021/09/07 04:25:02;;;;;;;;;21.25;19.75;;;;;;;;4989467;28;45314;-72
2021/09/07 04:27:27;;;;;;;;;17.25;14.75;;;;;;;;4989269;28;45426;-71
2021/09/07 04:29:52;;;;;;;;;15.75;15.25;;;;;;;;4989496;28;46233;-72
2021/09/07 04:32:17;;;;;;;;;23.75;22.50;;;;;;;;4990535;28;45412;-73
2021/09/07 04:34:43;;;;;;;;;17.75;16.75;;;;;;;;4986899;28;45452;-74
2021/09/07 04:37:08;;;;;;;;;25.00;21.50;;;;;;;;4987663;28;45418;-74
2021/09/07 04:39:33;;;;;;;;;23.50;19.25;;;;;;;;4988939;28;46071;-74
2021/09/07 04:41:58;;;;;;;;;22.00;21.00;;;;;;;;4988447;28;45621;-74
2021/09/07 04:44:23;;;;;;;;;30.75;26.50;;;;;;;;4990621;28;45286;-73
2021/09/07 04:46:49;;;;;;;;;25.75;23.25;;;;;;;;4988469;28;45436;-73
2021/09/07 04:49:14;;;;;;;;;29.00;26.50;;;;;;;;4987543;28;45455;-73
2021/09/07 04:51:39;;;;;;;;;23.25;20.75;;;;;;;;4973605;28;45513;-73
2021/09/07 04:54:04;;;;;;;;;24.25;19.50;;;;;;;;4991125;28;45430;-73
2021/09/07 04:56:29;;;;;;;;;21.50;19.25;;;;;;;;4993965;28;45523;-74
2021/09/07 04:58:55;;;;;;;;;22.00;21.50;;;;;;;;4991308;28;46306;-73
2021/09/07 05:01:20;;;;;;;;;21.75;20.50;;;;;;;;4991587;28;45421;-73
2021/09/07 05:03:45;;;;;;;;;28.50;25.00;;;;;;;;4991282;28;45371;-71
2021/09/07 05:06:10;;;;;;;;;22.50;21.25;;;;;;;;4991690;28;45237;-71
2021/09/07 05:08:35;;;;;;;;;25.25;24.25;;;;;;;;4993516;28;45393;-72
2021/09/07 05:11:01;;;;;;;;;26.25;23.00;;;;;;;;4991049;28;45411;-71
2021/09/07 05:13:26;;;;;;;;;21.25;21.00;;;;;;;;4989808;28;45460;-72
2021/09/07 05:15:51;;;;;;;;;24.00;20.75;;;;;;;;4989381;28;45432;-73
2021/09/07 05:18:16;;;;;;;;;27.25;24.50;;;;;;;;4990696;28;45352;-73
2021/09/07 05:20:42;;;;;;;;;28.50;25.75;;;;;;;;4992348;28;45289;-73
2021/09/07 05:23:07;;;;;;;;;21.00;19.75;;;;;;;;4991738;28;45333;-74
2021/09/07 05:25:32;;;;;;;;;23.00;18.75;;;;;;;;4990358;28;45495;-71
2021/09/07 05:27:57;;;;;;;;;24.00;21.25;;;;;;;;4990611;28;45774;-72
2021/09/07 05:30:22;;;;;;;;;19.00;19.00;;;;;;;;4990869;28;45478;-73
2021/09/07 05:32:48;;;;;;;;;16.00;16.00;;;;;;;;4992064;28;45299;-71
2021/09/07 05:35:13;;;;;;;;;27.00;21.75;;;;;;;;4991998;28;45387;-71
2021/09/07 05:37:39;;;;;;;;;26.00;22.00;;;;;;;;4990214;28;47084;-73
2021/09/07 05:40:07;;;;;;;;;26.75;26.50;;;;;;;;4990844;28;45282;-73
2021/09/07 05:42:32;;;;;;;;;27.50;24.50;;;;;;;;4990665;28;45502;-72
2021/09/07 05:44:57;;;;;;;;;29.75;27.25;;;;;;;;4990311;28;45351;-72
2021/09/07 05:47:23;;;;;;;;;24.50;22.75;;;;;;;;4991993;28;46134;-73
2021/09/07 05:49:48;;;;;;;;;27.25;26.25;;;;;;;;4990352;28;45402;-73
2021/09/07 05:52:14;;;;;;;;;24.00;23.75;;;;;;;;4988634;28;45320;-73
2021/09/07 05:54:39;;;;;;;;;27.50;27.50;;;;;;;;4989161;28;45539;-72
2021/09/07 05:57:04;;;;;;;;;23.00;22.00;;;;;;;;4990779;28;46311;-73
2021/09/07 05:59:29;;;;;;;;;28.00;23.00;;;;;;;;4974762;28;45701;-73
2021/09/07 06:01:54;;;;;;;;;26.75;22.00;;;;;;;;4988733;28;45338;-74
2021/09/07 06:04:20;;;;;;;;;28.00;24.75;;;;;;;;4990269;28;45290;-73
2021/09/07 06:06:45;;;;;;;;;32.00;31.25;;;;;;;;4989952;28;45311;-74
2021/09/07 06:09:10;;;;;;;;;36.25;31.25;;;;;;;;4990702;28;45365;-73
2021/09/07 06:11:35;;;;;;;;;25.00;24.00;;;;;;;;4992176;28;45293;-73
2021/09/07 06:14:00;;;;;;;;;27.75;25.25;;;;;;;;4989587;28;45640;-72
2021/09/07 06:16:26;;;;;;;;;23.00;22.50;;;;;;;;4971505;28;46091;-74
2021/09/07 06:18:51;;;;;;;;;24.75;22.00;;;;;;;;4989543;28;47433;-73
2021/09/07 06:21:16;;;;;;;;;31.25;28.25;;;;;;;;4989725;28;45393;-73
2021/09/07 06:23:41;;;;;;;;;25.00;20.50;;;;;;;;4991603;28;45355;-74
2021/09/07 06:26:06;;;;;;;;;21.00;20.00;;;;;;;;4989711;28;45331;-73
2021/09/07 06:28:32;;;;;;;;;21.00;21.00;;;;;;;;4989452;28;45386;-75
2021/09/07 06:30:57;;;;;;;;;23.75;23.00;;;;;;;;4987482;28;45694;-74
2021/09/07 06:33:22;;;;;;;;;22.50;21.25;;;;;;;;4988312;28;45340;-75
2021/09/07 06:35:47;;;;;;;;;20.00;18.00;;;;;;;;4990516;28;45566;-73
2021/09/07 06:38:13;;;;;;;;;22.50;22.00;;;;;;;;4990140;28;45483;-74
2021/09/07 06:40:39;;;;;;;;;20.50;18.75;;;;;;;;4989681;28;45635;-73
2021/09/07 06:43:04;;;;;;;;;18.00;16.25;;;;;;;;4989270;28;45471;-73
2021/09/07 06:45:30;;;;;;;;;28.25;24.50;;;;;;;;4989150;28;47060;-73
2021/09/07 06:47:55;;;;;;;;;18.75;17.25;;;;;;;;4989284;28;45533;-73
2021/09/07 06:50:20;;;;;;;;;30.00;23.75;;;;;;;;4989136;28;45431;-72
2021/09/07 06:52:46;;;;;;;;;23.25;20.25;;;;;;;;4989845;28;45498;-73
2021/09/07 06:55:11;;;;;;;;;33.25;28.75;;;;;;;;4989456;28;45362;-73
2021/09/07 06:57:36;;;;;;;;;27.25;24.50;;;;;;;;4989700;28;45431;-72
2021/09/07 07:00:04;;;;;;;;;34.75;30.50;;;;;;;;4989375;28;45428;-74
2021/09/07 07:02:30;;;;;;;;;32.75;27.25;;;;;;;;4991621;28;45638;-73
2021/09/07 07:04:55;;;;;;;;;27.00;26.25;;;;;;;;4988868;28;46074;-73
2021/09/07 07:07:20;;;;;;;;;23.75;23.00;;;;;;;;4989749;28;45288;-72
2021/09/07 07:09:45;;;;;;;;;33.00;29.50;;;;;;;;4988245;28;45571;-73
2021/09/07 07:12:11;;;;;;;;;24.00;21.75;;;;;;;;4988038;28;45378;-73
2021/09/07 07:14:36;;;;;;;;;16.50;15.50;;;;;;;;4991235;28;45978;-72
2021/09/07 07:17:01;;;;;;;;;21.75;20.00;;;;;;;;4989143;28;46325;-71
2021/09/07 07:19:26;;;;;;;;;26.50;22.25;;;;;;;;4989344;28;45423;-72
2021/09/07 07:21:52;;;;;;;;;25.50;23.00;;;;;;;;4988878;28;45416;-72
2021/09/07 07:24:17;;;;;;;;;28.50;25.75;;;;;;;;4989258;28;47346;-73
2021/09/07 07:26:44;;;;;;;;;27.75;25.75;;;;;;;;4990595;28;45550;-73
2021/09/07 07:29:09;;;;;;;;;27.00;24.75;;;;;;;;4988104;28;45483;-73
2021/09/07 07:31:34;;;;;;;;;23.75;22.75;;;;;;;;4989196;28;45491;-73
2021/09/07 07:34:00;;;;;;;;;18.25;18.25;;;;;;;;4989184;28;46269;-73
2021/09/07 07:36:25;;;;;;;;;23.50;21.25;;;;;;;;4989284;28;47200;-72
2021/09/07 07:38:50;;;;;;;;;23.50;22.50;;;;;;;;4990190;28;45411;-73
2021/09/07 07:41:16;;;;;;;;;23.75;22.75;;;;;;;;4990465;28;45405;-73
2021/09/07 07:43:44;;;;;;;;;22.75;21.50;;;;;;;;4988846;28;45549;-73
2021/09/07 07:46:19;;;;;;;;;24.00;22.00;;;;;;;;4988675;28;45355;-72
2021/09/07 07:48:44;;;;;;;;;25.75;23.75;;;;;;;;4987113;28;45594;-73
2021/09/07 07:51:11;;;;;;;;;23.00;19.50;;;;;;;;4988084;28;45296;-72
2021/09/07 07:53:36;;;;;;;;;21.00;18.50;;;;;;;;4990783;28;47353;-73
2021/09/07 07:56:02;;;;;;;;;26.75;24.75;;;;;;;;4988296;28;45418;-73
2021/09/07 07:58:27;;;;;;;;;26.75;21.75;;;;;;;;4988378;28;45376;-73
2021/09/07 08:00:53;;;;;;;;;17.00;16.00;;;;;;;;4988071;28;45505;-73
2021/09/07 08:03:18;;;;;;;;;24.50;23.50;;;;;;;;4988401;28;46427;-73
2021/09/07 08:05:43;;;;;;;;;29.50;28.00;;;;;;;;4989461;28;45489;-73
2021/09/07 08:08:08;;;;;;;;;28.75;25.50;;;;;;;;4987470;28;45447;-73
2021/09/07 08:10:34;;;;;;;;;24.50;22.00;;;;;;;;4988333;28;45369;-72
2021/09/07 08:12:59;;;;;;;;;23.00;21.50;;;;;;;;4988141;28;47152;-73
2021/09/07 08:15:25;;;;;;;;;26.00;24.50;;;;;;;;4988399;28;45328;-72
2021/09/07 08:17:50;;;;;;;;;25.00;22.25;;;;;;;;4989468;28;45279;-73
2021/09/07 08:20:15;;;;;;;;;21.00;18.75;;;;;;;;4989602;28;45593;-73
2021/09/07 08:22:40;;;;;;;;;20.50;18.75;;;;;;;;4988104;28;46243;-73
2021/09/07 08:25:06;;;;;;;;;21.75;19.75;;;;;;;;4990063;28;45441;-72
2021/09/07 08:27:31;;;;;;;;;19.00;17.25;;;;;;;;4989834;28;45344;-72
2021/09/07 08:29:56;;;;;;;;;21.00;19.00;;;;;;;;4992435;28;45350;-71
2021/09/07 08:32:22;;;;;;;;;22.25;19.25;;;;;;;;4991566;28;46235;-72
2021/09/07 08:34:47;;;;;;;;;22.00;19.00;;;;;;;;4991062;28;45392;-73
2021/09/07 08:37:12;;;;;;;;;23.75;20.00;;;;;;;;4991860;28;45361;-73
2021/09/07 08:39:37;;;;;;;;;17.00;17.00;;;;;;;;4991570;28;45306;-72
2021/09/07 08:42:05;;;;;;;;;23.00;23.00;;;;;;;;4973699;28;48044;-72
2021/09/07 08:44:30;;;;;;;;;18.25;16.00;;;;;;;;4993486;28;45366;-73
2021/09/07 08:46:56;;;;;;;;;23.50;23.25;;;;;;;;4990837;28;45453;-72
2021/09/07 08:49:21;;;;;;;;;20.00;19.75;;;;;;;;4990924;28;45553;-72
2021/09/07 08:51:47;;;;;;;;;19.75;17.75;;;;;;;;4990941;28;47052;-72
2021/09/07 08:54:13;;;;;;;;;23.00;21.75;;;;;;;;4990644;28;45389;-72
2021/09/07 08:56:38;;;;;;;;;16.00;16.00;;;;;;;;4993690;28;45417;-73
2021/09/07 08:59:04;;;;;;;;;23.75;18.00;;;;;;;;4991095;28;45341;-73
2021/09/07 09:01:35;;;;;;;;;22.25;20.50;;;;;;;;4990722;28;45354;-73
2021/09/07 09:04:01;;;;;;;;;17.25;15.75;;;;;;;;4990635;28;45561;-73
2021/09/07 09:06:26;;;;;;;;;21.50;18.50;;;;;;;;4989674;28;45180;-73
2021/09/07 09:09:02;;;;;;;;;23.00;20.00;;;;;;;;4992107;28;45283;-73
2021/09/07 09:11:27;;;;;;;;;20.00;19.50;;;;;;;;4991557;28;46286;-72
2021/09/07 09:13:52;;;;;;;;;20.00;17.75;;;;;;;;4990755;28;45343;-73
2021/09/07 09:16:18;;;;;;;;;21.25;19.75;;;;;;;;4991035;28;45561;-73
2021/09/07 09:18:46;;;;;;;;;17.75;16.50;;;;;;;;4991416;28;45573;-73
2021/09/07 09:21:28;;;;;;;;;14.00;14.00;;;;;;;;4975745;28;47206;-73
2021/09/07 09:24:13;;;;;;;;;16.50;14.50;;;;;;;;4988731;28;45537;-73
2021/09/07 09:26:59;;;;;;;;;13.75;13.75;;;;;;;;4988556;28;45347;-73
2021/09/07 09:29:28;;;;;;;;;18.25;15.50;;;;;;;;4972970;28;45328;-73
2021/09/07 09:32:00;;;;;;;;;18.50;16.75;;;;;;;;4990613;28;45426;-72
2021/09/07 09:34:26;;;;;;;;;17.50;17.50;;;;;;;;4989781;28;45339;-73
2021/09/07 09:36:56;;;;;;;;;18.00;15.50;;;;;;;;4990268;28;45426;-73
2021/09/07 09:40:00;;;;;;;;;19.75;19.50;;;;;;;;4972566;28;45450;-73
2021/09/07 09:42:29;;;;;;;;;13.75;13.75;;;;;;;;4879798;29;47291;-73
2021/09/07 09:45:02;;;;;;;;;16.75;16.75;;;;;;;;4892658;29;45610;-73
2021/09/07 09:47:34;;;;;;;;;14.25;13.00;;;;;;;;4891900;29;45469;-72
2021/09/07 09:50:00;;;;;;;;;14.50;13.00;;;;;;;;4892387;29;45553;-73
2021/09/07 09:52:26;;;;;;;;;16.50;14.00;;;;;;;;4892239;29;47000;-71
2021/09/07 09:54:52;;;;;;;;;15.50;14.25;;;;;;;;4892858;29;46061;-73
2021/09/07 09:57:17;;;;;;;;;18.75;17.75;;;;;;;;4893088;29;45495;-73
2021/09/07 09:59:44;;;;;;;;;13.75;12.00;;;;;;;;4893415;29;45514;-73
2021/09/07 10:02:09;;;;;;;;;13.25;12.50;;;;;;;;4892919;29;47231;-73
2021/09/07 10:04:34;;;;;;;;;21.50;21.50;;;;;;;;4892231;29;45807;-74
2021/09/07 10:06:59;;;;;;;;;16.25;12.25;;;;;;;;4892318;29;45307;-74
2021/09/07 10:09:26;;;;;;;;;11.50;11.50;;;;;;;;4892437;29;45466;-73
2021/09/07 10:12:11;;;;;;;;;12.00;12.00;;;;;;;;4892323;29;47134;-73
2021/09/07 10:14:41;;;;;;;;;11.00;10.25;;;;;;;;4991874;28;45487;-73
2021/09/07 10:17:16;;;;;;;;;14.25;12.25;;;;;;;;4989472;28;45378;-73
2021/09/07 10:19:44;;;;;;;;;14.50;14.50;;;;;;;;4989211;28;45553;-73
2021/09/07 10:24:54;;;;;;;;;13.50;13.50;;;;;;;;4987583;28;45519;-73
2021/09/07 10:27:20;;;;;;;;;17.00;11.00;;;;;;;;4988417;28;45620;-73
2021/09/07 10:29:46;;;;;;;;;20.00;20.00;;;;;;;;4990839;28;45580;-73
2021/09/07 10:32:21;;;;;;;;;14.00;14.00;;;;;;;;4990064;28;47136;-74
2021/09/07 10:35:13;;;;;;;;;23.00;20.00;;;;;;;;4987575;28;45444;-73
2021/09/07 10:37:56;;;;;;;;;14.25;14.25;;;;;;;;4986326;28;45675;-73
2021/09/07 10:40:42;;;;;;;;;15.50;14.00;;;;;;;;4989872;28;45627;-73
2021/09/07 10:43:07;;;;;;;;;14.25;12.25;;;;;;;;4989177;28;46971;-73
2021/09/07 10:45:33;;;;;;;;;16.75;16.75;;;;;;;;4989515;28;45550;-73
2021/09/07 10:48:18;;;;;;;;;13.50;12.25;;;;;;;;4988639;28;45337;-73
2021/09/07 10:50:56;;;;;;;;;16.25;16.00;;;;;;;;4986887;28;45347;-71
2021/09/07 10:53:22;;;;;;;;;14.50;14.50;;;;;;;;4989911;28;46441;-70
2021/09/07 10:55:47;;;;;;;;;13.75;13.25;;;;;;;;4989022;28;45366;-72
2021/09/07 10:58:29;;;;;;;;;17.50;13.50;;;;;;;;4988947;28;45438;-72
2021/09/07 11:00:55;;;;;;;;;13.50;13.00;;;;;;;;4989103;28;45501;-71
2021/09/07 11:03:24;;;;;;;;;21.50;17.50;;;;;;;;4971606;28;47387;-72
2021/09/07 11:05:49;;;;;;;;;10.00;10.00;;;;;;;;4990272;28;45346;-71
2021/09/07 11:08:19;;;;;;;;;10.25;10.00;;;;;;;;4989083;28;45434;-71
2021/09/07 11:10:49;;;;;;;;;12.50;11.25;;;;;;;;4989369;28;45571;-72
2021/09/07 11:13:22;;;;;;;;;12.75;12.50;;;;;;;;4989486;28;46210;-72
2021/09/07 11:15:48;;;;;;;;;13.75;10.00;;;;;;;;4988976;28;45590;-71
2021/09/07 11:18:14;;;;;;;;;10.25;10.25;;;;;;;;4988981;28;45373;-71
2021/09/07 11:20:41;;;;;;;;;14.25;13.00;;;;;;;;4991106;28;45427;-72
2021/09/07 11:23:27;;;;;;;;;15.50;15.50;;;;;;;;4988392;28;46288;-73
2021/09/07 11:26:00;;;;;;;;;12.00;12.00;;;;;;;;4977633;28;45385;-72
2021/09/07 11:28:26;;;;;;;;;13.00;11.50;;;;;;;;4989723;28;45563;-72
2021/09/07 11:30:51;;;;;;;;;17.00;17.00;;;;;;;;4988848;28;46035;-72
2021/09/07 11:33:22;;;;;;;;;17.75;16.50;;;;;;;;4989060;28;46691;-71
2021/09/07 11:35:49;;;;;;;;;12.00;9.75;;;;;;;;4971375;28;45286;-72
2021/09/07 11:38:15;;;;;;;;;10.75;10.75;;;;;;;;4989424;28;45553;-71
2021/09/07 11:40:45;;;;;;;;;10.50;10.00;;;;;;;;4988257;28;45369;-71
2021/09/07 11:43:11;;;;;;;;;9.75;9.75;;;;;;;;4986755;28;47239;-70
2021/09/07 11:45:36;;;;;;;;;12.00;11.75;;;;;;;;4986648;28;45564;-72
2021/09/07 11:48:03;;;;;;;;;12.75;10.75;;;;;;;;4988412;28;45293;-71
2021/09/07 11:50:30;;;;;;;;;10.50;10.50;;;;;;;;4990025;28;45341;-72
2021/09/07 11:52:56;;;;;;;;;10.75;10.75;;;;;;;;4987869;28;46195;-71
2021/09/07 11:55:36;;;;;;;;;10.00;10.00;;;;;;;;4988586;28;45446;-71
2021/09/07 11:58:02;;;;;;;;;12.75;9.75;;;;;;;;4988906;28;45406;-71
2021/09/07 12:00:27;;;;;;;;;12.50;11.75;;;;;;;;4990956;28;45412;-72
2021/09/07 12:03:11;;;;;;;;;9.50;9.50;;;;;;;;4991510;28;46264;-71
2021/09/07 12:05:50;;;;;;;;;11.00;10.00;;;;;;;;4993007;28;45439;-72
2021/09/07 12:08:15;;;;;;;;;9.75;9.75;;;;;;;;4992162;28;45420;-71
2021/09/07 12:10:50;;;;;;;;;13.00;13.00;;;;;;;;4991165;28;45451;-72
2021/09/07 12:13:19;;;;;;;;;12.00;11.25;;;;;;;;4991006;28;46195;-71
2021/09/07 12:15:44;;;;;;;;;9.00;9.00;;;;;;;;4990734;28;45409;-72
2021/09/07 12:18:23;;;;;;;;;10.50;10.50;;;;;;;;4990222;28;45407;-72
2021/09/07 12:20:49;;;;;;;;;10.25;10.00;;;;;;;;4989187;28;45480;-71
2021/09/07 12:23:29;;;;;;;;;9.50;9.50;;;;;;;;4991794;28;47230;-71
2021/09/07 12:25:54;;;;;;;;;11.75;9.50;;;;;;;;4989537;28;45411;-72
2021/09/07 12:28:19;;;;;;;;;11.50;10.25;;;;;;;;4991232;28;45542;-70
2021/09/07 12:30:45;;;;;;;;;10.50;10.50;;;;;;;;4991894;28;45510;-70
2021/09/07 12:33:17;;;;;;;;;10.50;10.50;;;;;;;;4975657;28;45391;-70
2021/09/07 12:35:42;;;;;;;;;12.25;9.75;;;;;;;;4989285;28;45525;-70
2021/09/07 12:38:07;;;;;;;;;9.50;7.25;;;;;;;;4973270;28;45437;-70
2021/09/07 12:40:33;;;;;;;;;15.25;14.50;;;;;;;;4990797;28;45383;-71
2021/09/07 12:43:04;;;;;;;;;13.50;12.00;;;;;;;;4991261;28;45549;-71
2021/09/07 12:45:29;;;;;;;;;12.50;11.50;;;;;;;;4990624;28;45458;-70
2021/09/07 12:47:54;;;;;;;;;10.00;10.00;;;;;;;;4991122;28;45327;-71
2021/09/07 12:50:20;;;;;;;;;13.25;13.00;;;;;;;;4992618;28;45453;-71
2021/09/07 12:52:48;;;;;;;;;11.25;8.75;;;;;;;;4990687;28;45549;-71
2021/09/07 12:55:13;;;;;;;;;11.25;10.00;;;;;;;;4990580;28;45347;-70
2021/09/07 12:57:38;;;;;;;;;12.25;11.50;;;;;;;;4991067;28;45293;-70
2021/09/07 13:00:04;;;;;;;;;10.00;9.50;;;;;;;;4991110;28;45519;-71
2021/09/07 13:02:29;;;;;;;;;10.25;9.25;;;;;;;;4990717;28;45639;-71
2021/09/07 13:04:54;;;;;;;;;9.25;8.50;;;;;;;;4971239;28;45460;-70
2021/09/07 13:07:20;;;;;;;;;9.75;9.75;;;;;;;;4991144;28;45493;-70
2021/09/07 13:09:45;;;;;;;;;10.00;10.00;;;;;;;;4990875;28;45633;-70
2021/09/07 13:12:12;;;;;;;;;11.00;9.25;;;;;;;;4991018;28;45579;-70
2021/09/07 13:14:37;;;;;;;;;10.75;9.25;;;;;;;;4992560;28;45650;-70
2021/09/07 13:17:03;;;;;;;;;6.00;6.00;;;;;;;;4989967;28;45354;-72
2021/09/07 13:19:28;;;;;;;;;14.00;13.25;;;;;;;;4990531;28;45446;-69
2021/09/07 13:21:53;;;;;;;;;9.75;9.75;;;;;;;;4990892;28;45471;-71
2021/09/07 13:24:19;;;;;;;;;10.75;9.75;;;;;;;;4990305;28;45447;-71
2021/09/07 13:26:44;;;;;;;;;8.75;8.75;;;;;;;;4992054;28;45552;-71
2021/09/07 13:29:09;;;;;;;;;10.00;9.50;;;;;;;;4991267;28;45637;-71
2021/09/07 13:31:34;;;;;;;;;11.75;11.75;;;;;;;;4989318;28;46314;-71
2021/09/07 13:33:59;;;;;;;;;9.25;7.75;;;;;;;;4973071;28;45365;-69
2021/09/07 13:36:25;;;;;;;;;6.50;6.50;;;;;;;;4991133;28;45446;-72
2021/09/07 13:38:50;;;;;;;;;8.25;8.25;;;;;;;;4991435;28;45496;-71
2021/09/07 13:41:16;;;;;;;;;9.00;9.00;;;;;;;;4990136;28;47520;-71
2021/09/07 13:43:41;;;;;;;;;9.00;9.00;;;;;;;;4988335;28;45476;-71
2021/09/07 13:46:06;;;;;;;;;7.00;7.00;;;;;;;;4989377;28;45333;-72
2021/09/07 13:48:35;;;;;;;;;10.25;10.25;;;;;;;;4990005;28;45426;-71
2021/09/07 13:51:00;;;;;;;;;10.00;8.75;;;;;;;;4989264;28;46323;-71
2021/09/07 13:53:26;;;;;;;;;11.50;11.50;;;;;;;;4991561;28;45417;-72
2021/09/07 13:55:51;;;;;;;;;9.00;8.00;;;;;;;;4990107;28;45367;-71
2021/09/07 13:58:16;;;;;;;;;6.75;6.75;;;;;;;;4990148;28;45375;-71
2021/09/07 14:00:41;;;;;;;;;8.50;7.50;;;;;;;;4989305;28;45987;-71
2021/09/07 14:03:06;;;;;;;;;9.25;7.50;;;;;;;;4989962;28;45419;-71
2021/09/07 14:05:32;;;;;;;;;11.75;8.00;;;;;;;;4991942;28;45352;-71
2021/09/07 14:07:57;;;;;;;;;7.75;7.50;;;;;;;;4989881;28;45344;-71
2021/09/07 14:10:22;;;;;;;;;7.75;7.50;;;;;;;;4989118;28;46168;-72
2021/09/07 14:12:47;;;;;;;;;6.25;5.75;;;;;;;;4989242;28;45689;-70
2021/09/07 14:15:13;;;;;;;;;11.00;8.50;;;;;;;;4988860;28;45432;-71
2021/09/07 14:17:38;;;;;;;;;4.00;4.00;;;;;;;;4991648;28;45565;-71